createdAt,value
2023-02-19T00:04:43.850Z,9.68
2023-02-19T00:09:48.958Z,5.63
2023-02-19T00:14:52.679Z,4.80
2023-02-19T00:19:56.378Z,6.05
2023-02-19T00:25:01.546Z,6.50
2023-02-19T00:30:05.692Z,10.00
2023-02-19T00:35:09.507Z,9.23
2023-02-19T00:40:14.651Z,8.13
2023-02-19T00:45:18.464Z,7.28
2023-02-19T00:50:22.196Z,6.00
2023-02-19T00:55:27.472Z,6.03
2023-02-19T01:00:31.273Z,5.63
2023-02-19T01:05:34.923Z,6.22
2023-02-19T01:10:40.020Z,5.65
2023-02-19T01:15:43.931Z,6.80
2023-02-19T01:20:47.754Z,9.77
2023-02-19T01:25:52.894Z,10.00
2023-02-19T01:30:56.680Z,13.27
2023-02-19T01:36:00.382Z,11.73
2023-02-19T01:41:07.852Z,12.27
2023-02-19T01:46:11.679Z,11.38
2023-02-19T01:51:21.305Z,12.68
2023-02-19T01:56:28.238Z,11.98
2023-02-19T02:01:32.393Z,10.93
2023-02-19T02:06:43.546Z,11.15
2023-02-19T02:11:50.953Z,14.52
2023-02-19T02:17:01.676Z,15.20
2023-02-19T02:22:14.304Z,15.85
2023-02-19T02:27:42.046Z,12.60
2023-02-19T02:32:56.255Z,15.13
2023-02-19T02:38:04.278Z,14.40
2023-02-19T02:43:08.820Z,13.43
2023-02-19T02:48:30.044Z,12.70
2023-02-19T02:53:55.878Z,13.45
2023-02-19T02:59:02.404Z,10.07
2023-02-19T03:09:56.879Z,9.18
2023-02-19T03:15:24.388Z,10.75
2023-02-19T03:20:35.421Z,6.90
2023-02-19T03:25:58.995Z,6.65
2023-02-19T03:31:16.093Z,5.72
2023-02-19T03:36:26.782Z,5.75
2023-02-19T03:41:38.078Z,6.40
2023-02-19T03:46:48.611Z,14.70
2023-02-19T03:51:59.228Z,5.63
2023-02-19T03:57:08.040Z,5.30
2023-02-19T04:02:14.890Z,6.00
2023-02-19T04:07:19.232Z,5.13
2023-02-19T04:12:25.448Z,5.90
2023-02-19T04:17:35.542Z,6.20
2023-02-19T04:22:41.292Z,9.00
2023-02-19T04:27:47.320Z,10.13
2023-02-19T04:32:50.941Z,14.88
2023-02-19T04:37:54.717Z,18.77
2023-02-19T04:42:59.765Z,21.58
2023-02-19T04:48:03.422Z,20.83
2023-02-19T04:53:07.433Z,22.38
2023-02-19T04:58:12.797Z,18.30
2023-02-19T05:03:16.475Z,22.27
2023-02-19T05:08:20.754Z,26.77
2023-02-19T05:13:25.866Z,20.88
2023-02-19T05:18:30.937Z,21.60
2023-02-19T05:23:34.585Z,17.92
2023-02-19T05:28:39.850Z,21.45
2023-02-19T05:33:44.404Z,20.08
2023-02-19T05:38:49.132Z,22.23
2023-02-19T05:43:55.019Z,19.65
2023-02-19T05:48:59.353Z,17.65
2023-02-19T05:54:03.019Z,15.80
2023-02-19T05:59:09.924Z,14.45
2023-02-19T06:04:15.607Z,13.48
2023-02-19T06:09:19.577Z,11.52
2023-02-19T06:14:24.674Z,9.07
2023-02-19T06:19:28.428Z,7.93
2023-02-19T06:24:32.207Z,6.15
2023-02-19T06:29:38.372Z,6.70
2023-02-19T06:34:42.123Z,7.50
2023-02-19T06:39:45.972Z,8.13
2023-02-19T06:44:51.030Z,9.40
2023-02-19T06:49:54.729Z,11.75
2023-02-19T06:54:58.431Z,10.48
2023-02-19T07:00:04.725Z,22.95
2023-02-19T07:05:08.612Z,27.25
2023-02-19T07:10:12.462Z,26.40
2023-02-19T07:15:17.741Z,19.95
2023-02-19T07:20:21.438Z,22.80
2023-02-19T07:25:25.111Z,21.60
2023-02-19T07:30:30.402Z,19.20
2023-02-19T07:35:34.222Z,22.48
2023-02-19T07:40:40.566Z,26.13
2023-02-19T07:45:46.675Z,20.88
2023-02-19T07:50:53.982Z,20.35
2023-02-19T07:56:02.703Z,30.48
2023-02-19T08:01:13.181Z,87.17
2023-02-19T08:06:17.516Z,112.50
2023-02-19T08:11:38.724Z,167.77
2023-02-19T08:16:51.705Z,110.28
2023-02-19T08:21:58.462Z,100.30
2023-02-19T08:27:03.813Z,75.80
2023-02-19T08:32:13.672Z,35.25
2023-02-19T08:37:19.154Z,25.08
2023-02-19T08:42:23.490Z,28.20
2023-02-19T08:47:28.716Z,46.60
2023-02-19T08:52:32.637Z,40.03
2023-02-19T08:57:37.675Z,39.58
2023-02-19T09:02:42.891Z,40.08
2023-02-19T09:07:46.580Z,37.00
2023-02-19T09:12:50.533Z,43.35
2023-02-19T09:17:55.684Z,44.78
2023-02-19T09:22:59.877Z,31.63
2023-02-19T09:28:03.730Z,24.40
2023-02-19T09:33:09.478Z,23.70
2023-02-19T09:38:13.367Z,14.50
2023-02-19T09:43:20.903Z,8.77
2023-02-19T09:48:26.006Z,10.82
2023-02-19T09:53:36.391Z,11.48
2023-02-19T09:58:48.215Z,10.98
2023-02-19T10:03:53.628Z,26.50
2023-02-19T10:33:50.716Z,6.30
2023-02-19T10:38:56.086Z,6.07
2023-02-19T10:44:13.951Z,8.25
2023-02-19T10:49:26.022Z,7.72
2023-02-19T10:54:32.845Z,8.27
2023-02-19T10:59:50.604Z,8.32
2023-02-19T11:05:16.509Z,5.03
2023-02-19T11:10:29.100Z,6.28
2023-02-19T11:15:35.981Z,40.03
2023-02-19T11:20:50.114Z,110.32
2023-02-19T11:25:56.531Z,139.60
2023-02-19T11:31:24.318Z,147.48
2023-02-19T11:36:35.166Z,62.30
2023-02-19T11:47:53.027Z,49.70
2023-02-19T11:59:39.649Z,24.05
2023-02-19T12:05:13.125Z,18.73
2023-02-19T12:10:26.300Z,20.33
2023-02-19T12:22:28.028Z,12.90
2023-02-19T12:27:48.817Z,15.02
2023-02-19T12:40:16.944Z,15.60
2023-02-19T12:45:28.215Z,11.23
2023-02-19T12:50:34.266Z,17.15
2023-02-19T12:55:43.519Z,21.15
2023-02-19T13:00:54.132Z,29.48
2023-02-19T13:06:04.820Z,46.05
2023-02-19T13:11:16.412Z,85.25
2023-02-19T13:16:23.613Z,87.22
2023-02-19T13:21:48.824Z,105.68
2023-02-19T13:27:09.181Z,206.02
2023-02-19T13:38:13.407Z,80.90
2023-02-19T13:49:45.241Z,22.67
2023-02-19T14:02:18.774Z,27.60
2023-02-19T14:07:55.724Z,28.25
2023-02-19T14:18:48.137Z,15.13
2023-02-19T14:23:54.558Z,18.50
2023-02-19T14:34:46.807Z,11.80
2023-02-19T14:45:43.715Z,13.50
2023-02-19T14:57:17.835Z,8.93
2023-02-19T15:08:24.639Z,14.43
2023-02-19T15:13:31.060Z,8.48
2023-02-19T15:24:25.418Z,13.27
2023-02-19T15:29:31.094Z,13.40
2023-02-19T15:34:38.398Z,18.13
2023-02-19T15:39:48.314Z,10.63
2023-02-19T15:56:51.763Z,12.52
2023-02-19T16:01:57.042Z,14.02
2023-02-19T16:14:24.594Z,15.02
2023-02-19T16:19:31.394Z,14.60
2023-02-19T16:30:30.935Z,12.75
2023-02-19T16:35:41.327Z,12.40
2023-02-19T16:41:08.024Z,17.88
2023-02-19T16:46:14.689Z,17.00
2023-02-19T17:04:18.007Z,18.65
2023-02-19T17:09:22.579Z,14.18
2023-02-19T17:14:26.759Z,26.75
2023-02-19T17:19:32.895Z,24.08
2023-02-19T17:24:38.480Z,16.08
2023-02-19T17:29:48.711Z,21.83
2023-02-19T17:40:49.381Z,17.85
2023-02-19T17:47:07.309Z,15.20
2023-02-19T17:59:49.963Z,25.35
2023-02-19T18:04:55.207Z,20.98
2023-02-19T18:10:02.881Z,18.00
2023-02-19T18:21:41.802Z,16.77
2023-02-19T18:26:46.601Z,16.02
2023-02-19T18:38:52.651Z,15.05
2023-02-19T18:43:57.095Z,16.27
2023-02-19T18:55:46.232Z,12.82
2023-02-19T19:00:50.895Z,12.10
2023-02-19T19:05:55.390Z,14.27
2023-02-19T19:11:00.928Z,15.77
2023-02-19T19:23:45.353Z,18.65
2023-02-19T19:28:51.353Z,17.40
2023-02-19T19:39:39.483Z,20.98
2023-02-19T19:44:50.130Z,20.80
2023-02-19T19:49:57.833Z,16.88
2023-02-19T20:01:07.545Z,18.40
2023-02-19T20:06:11.774Z,26.10
2023-02-19T20:17:02.867Z,21.08
2023-02-19T20:22:08.238Z,20.90
2023-02-19T20:39:38.091Z,32.38
2023-02-19T20:45:32.178Z,26.80
2023-02-19T20:50:37.968Z,28.67
2023-02-19T20:55:42.995Z,29.13
2023-02-19T21:00:47.234Z,27.75
2023-02-19T21:05:53.051Z,26.23
2023-02-19T21:10:57.263Z,24.23
2023-02-19T21:16:02.034Z,19.90
2023-02-19T21:21:08.990Z,24.35
2023-02-19T21:26:13.371Z,22.00
2023-02-19T21:31:17.805Z,23.75
2023-02-19T21:36:24.454Z,19.95
2023-02-19T21:41:28.661Z,20.60
2023-02-19T21:46:34.590Z,19.08
2023-02-19T21:51:42.046Z,16.38
2023-02-19T21:56:46.739Z,19.27
2023-02-19T22:01:51.457Z,13.80
2023-02-19T22:06:58.187Z,16.00
2023-02-19T22:12:02.389Z,18.08
2023-02-19T22:17:06.657Z,13.80
2023-02-19T22:22:12.229Z,13.50
2023-02-19T22:27:16.654Z,22.25
2023-02-19T22:32:20.958Z,20.42
2023-02-19T22:37:26.706Z,16.55
2023-02-19T22:42:31.039Z,18.83
2023-02-19T22:47:35.445Z,11.73
2023-02-19T22:52:41.110Z,11.90
2023-02-19T22:57:45.345Z,17.75
2023-02-19T23:02:49.678Z,11.65
2023-02-19T23:07:55.702Z,14.57
2023-02-19T23:12:59.814Z,11.65
2023-02-19T23:18:06.433Z,11.93
2023-02-19T23:23:12.029Z,13.95
2023-02-19T23:28:18.342Z,20.92
2023-02-19T23:33:22.434Z,14.60
2023-02-19T23:38:28.290Z,8.95
2023-02-19T23:43:33.064Z,8.55
2023-02-19T23:48:37.414Z,7.75
2023-02-19T23:53:43.251Z,7.97
2023-02-19T23:58:47.431Z,8.20
